createdAt,value
2019-03-22T00:00:09.487Z,108.52
2019-03-22T00:02:43.393Z,104.20
2019-03-22T00:05:16.084Z,109.52
2019-03-22T00:07:48.906Z,107.65
2019-03-22T00:10:21.806Z,111.90
2019-03-22T00:12:54.199Z,116.97
2019-03-22T00:15:27.053Z,109.32
2019-03-22T00:17:59.659Z,109.70
2019-03-22T00:20:32.353Z,108.27
2019-03-22T00:23:04.877Z,104.40
2019-03-22T00:25:37.524Z,111.20
2019-03-22T00:28:10.281Z,105.43
2019-03-22T00:30:43.102Z,99.75
2019-03-22T00:33:15.613Z,108.67
2019-03-22T00:35:48.360Z,98.95
2019-03-22T00:38:21.199Z,103.60
2019-03-22T00:40:54.000Z,104.60
2019-03-22T00:43:26.695Z,96.82
2019-03-22T00:45:59.469Z,103.02
2019-03-22T00:48:32.096Z,100.47
2019-03-22T00:51:04.462Z,99.58
2019-03-22T00:53:37.448Z,99.55
2019-03-22T00:56:09.842Z,91.45
2019-03-22T00:58:42.669Z,92.15
2019-03-22T01:01:15.055Z,86.85
2019-03-22T01:03:47.772Z,87.25
2019-03-22T01:06:21.276Z,84.28
2019-03-22T01:08:54.029Z,85.03
2019-03-22T01:11:26.354Z,87.72
2019-03-22T01:13:59.645Z,89.30
2019-03-22T01:16:32.110Z,91.35
2019-03-22T01:19:04.482Z,89.42
2019-03-22T01:21:36.946Z,86.78
2019-03-22T01:24:09.468Z,79.90
2019-03-22T01:26:42.073Z,85.50
2019-03-22T01:29:14.766Z,85.47
2019-03-22T01:31:47.249Z,91.72
2019-03-22T01:34:19.960Z,86.20
2019-03-22T01:36:52.941Z,83.17
2019-03-22T01:39:25.555Z,83.62
2019-03-22T01:41:57.955Z,79.35
2019-03-22T01:44:30.658Z,87.37
2019-03-22T01:47:03.890Z,82.50
2019-03-22T01:49:36.930Z,77.12
2019-03-22T01:52:09.432Z,79.53
2019-03-22T01:54:41.864Z,78.15
2019-03-22T01:57:14.153Z,77.35
2019-03-22T01:59:46.527Z,76.82
2019-03-22T02:02:19.030Z,70.75
2019-03-22T02:04:51.405Z,70.95
2019-03-22T02:07:24.632Z,75.28
2019-03-22T02:09:56.882Z,72.03
2019-03-22T02:12:29.794Z,70.15
2019-03-22T02:15:02.012Z,65.52
2019-03-22T02:17:35.054Z,66.70
2019-03-22T02:20:08.686Z,70.90
2019-03-22T02:22:41.422Z,63.13
2019-03-22T02:25:14.160Z,66.50
2019-03-22T02:27:46.881Z,58.30
2019-03-22T02:30:19.927Z,55.20
2019-03-22T02:32:52.998Z,57.08
2019-03-22T02:35:29.158Z,58.63
2019-03-22T02:37:59.597Z,67.15
2019-03-22T02:40:31.983Z,63.48
2019-03-22T02:43:04.489Z,58.28
2019-03-22T02:45:37.050Z,56.25
2019-03-22T02:48:09.732Z,57.45
2019-03-22T02:50:42.133Z,56.53
2019-03-22T02:53:14.871Z,51.75
2019-03-22T02:55:47.248Z,60.10
2019-03-22T02:58:21.363Z,57.95
2019-03-22T03:00:53.940Z,59.15
2019-03-22T03:03:26.769Z,59.70
2019-03-22T03:06:01.422Z,55.15
2019-03-22T03:08:34.078Z,54.93
2019-03-22T03:11:06.718Z,60.55
2019-03-22T03:13:39.079Z,55.65
2019-03-22T03:16:11.598Z,58.58
2019-03-22T03:18:43.814Z,55.58
2019-03-22T03:21:16.190Z,57.73
2019-03-22T03:23:48.729Z,62.95
2019-03-22T03:26:21.214Z,58.42
2019-03-22T03:28:53.801Z,56.20
2019-03-22T03:31:26.404Z,58.38
2019-03-22T03:33:59.051Z,56.40
2019-03-22T03:36:34.844Z,62.17
2019-03-22T03:39:06.969Z,55.40
2019-03-22T03:41:39.830Z,56.05
2019-03-22T03:44:12.543Z,51.70
2019-03-22T03:46:45.689Z,54.38
2019-03-22T03:49:18.066Z,49.60
2019-03-22T03:51:50.494Z,50.40
2019-03-22T03:54:22.915Z,50.58
2019-03-22T03:56:56.278Z,49.73
2019-03-22T03:59:28.744Z,48.48
2019-03-22T04:02:01.316Z,53.45
2019-03-22T04:04:33.667Z,53.87
2019-03-22T04:07:06.225Z,47.15
2019-03-22T04:09:38.460Z,47.78
2019-03-22T04:12:11.480Z,44.55
2019-03-22T04:14:44.485Z,44.33
2019-03-22T04:17:17.246Z,43.90
2019-03-22T04:19:50.172Z,45.65
2019-03-22T04:22:22.669Z,44.93
2019-03-22T04:24:55.058Z,50.73
2019-03-22T04:27:27.733Z,49.83
2019-03-22T04:30:00.187Z,46.13
2019-03-22T04:32:34.171Z,47.60
2019-03-22T04:35:08.672Z,45.98
2019-03-22T04:37:41.520Z,46.13
2019-03-22T04:40:16.147Z,45.00
2019-03-22T04:42:48.937Z,44.55
2019-03-22T04:45:22.591Z,43.63
2019-03-22T04:47:57.189Z,40.90
2019-03-22T04:50:30.922Z,45.23
2019-03-22T04:53:04.302Z,42.67
2019-03-22T04:55:37.513Z,42.03
2019-03-22T04:58:13.395Z,40.35
2019-03-22T05:00:46.328Z,38.23
2019-03-22T05:03:21.525Z,42.10
2019-03-22T05:05:54.988Z,41.73
2019-03-22T05:08:29.532Z,41.48
2019-03-22T05:11:04.377Z,41.30
2019-03-22T05:13:38.922Z,39.73
2019-03-22T05:16:13.439Z,37.48
2019-03-22T05:18:48.361Z,37.25
2019-03-22T05:21:23.001Z,38.38
2019-03-22T05:23:57.541Z,38.23
2019-03-22T05:26:32.204Z,46.40
2019-03-22T05:29:05.638Z,39.03
2019-03-22T05:31:40.786Z,41.28
2019-03-22T05:34:13.447Z,39.15
2019-03-22T05:36:46.352Z,37.90
2019-03-22T05:39:18.688Z,37.60
2019-03-22T05:41:51.591Z,37.08
2019-03-22T05:44:24.223Z,41.28
2019-03-22T05:46:57.169Z,42.80
2019-03-22T05:49:30.244Z,45.40
2019-03-22T05:52:02.989Z,45.23
2019-03-22T05:54:35.499Z,42.25
2019-03-22T05:57:13.742Z,45.60
2019-03-22T05:59:43.428Z,48.08
2019-03-22T06:02:15.870Z,45.50
2019-03-22T06:04:48.841Z,46.08
2019-03-22T06:07:21.357Z,43.10
2019-03-22T06:09:53.917Z,42.25
2019-03-22T06:12:26.793Z,41.88
2019-03-22T06:14:59.307Z,40.38
2019-03-22T06:17:32.089Z,42.40
2019-03-22T06:20:05.888Z,40.75
2019-03-22T06:22:38.742Z,36.48
2019-03-22T06:25:11.358Z,37.95
2019-03-22T06:27:44.327Z,43.70
2019-03-22T06:30:17.426Z,40.52
2019-03-22T06:32:50.112Z,45.75
2019-03-22T06:35:22.494Z,37.38
2019-03-22T06:37:54.912Z,38.70
2019-03-22T06:40:27.250Z,34.70
2019-03-22T06:42:59.771Z,44.48
2019-03-22T06:48:03.800Z,33.13
2019-03-22T06:50:36.521Z,34.30
2019-03-22T06:53:09.219Z,30.50
2019-03-22T06:55:41.737Z,30.70
2019-03-22T06:58:14.719Z,30.72
2019-03-22T07:00:47.427Z,32.03
2019-03-22T07:03:19.954Z,31.85
2019-03-22T07:05:52.313Z,32.75
2019-03-22T07:08:25.025Z,30.40
2019-03-22T07:10:57.364Z,31.52
2019-03-22T07:13:30.348Z,32.35
2019-03-22T07:16:02.635Z,29.00
2019-03-22T07:18:35.124Z,29.42
2019-03-22T07:21:07.466Z,29.75
2019-03-22T07:23:40.004Z,28.12
2019-03-22T07:26:12.376Z,30.55
2019-03-22T07:28:45.167Z,30.55
2019-03-22T07:31:17.747Z,28.90
2019-03-22T07:33:50.186Z,28.80
2019-03-22T07:36:23.108Z,28.75
2019-03-22T07:38:56.214Z,29.05
2019-03-22T07:41:28.851Z,26.70
2019-03-22T07:44:01.278Z,27.20
2019-03-22T07:46:33.890Z,35.70
2019-03-22T07:49:06.368Z,32.93
2019-03-22T07:51:39.060Z,33.58
2019-03-22T07:54:11.513Z,31.77
2019-03-22T07:56:44.017Z,30.08
2019-03-22T07:59:16.360Z,31.23
2019-03-22T08:01:49.866Z,31.02
2019-03-22T08:04:22.384Z,31.35
2019-03-22T08:06:55.871Z,29.98
2019-03-22T08:09:28.590Z,31.30
2019-03-22T08:12:01.287Z,30.48
2019-03-22T08:14:33.830Z,29.40
2019-03-22T08:17:06.517Z,31.37
2019-03-22T08:19:39.470Z,28.65
2019-03-22T08:22:12.064Z,30.75
2019-03-22T08:24:45.531Z,29.10
2019-03-22T08:27:17.894Z,30.30
2019-03-22T08:29:50.648Z,29.00
2019-03-22T08:32:23.337Z,28.70
2019-03-22T08:34:56.008Z,31.37
2019-03-22T08:37:28.738Z,29.42
2019-03-22T08:40:02.175Z,34.33
2019-03-22T08:42:35.676Z,33.20
2019-03-22T08:45:11.574Z,31.65
2019-03-22T08:47:44.219Z,32.70
2019-03-22T08:50:18.332Z,38.90
2019-03-22T08:52:51.370Z,32.73
2019-03-22T08:55:23.933Z,29.32
2019-03-22T08:57:56.242Z,29.90
2019-03-22T09:00:38.746Z,30.02
2019-03-22T09:03:02.280Z,32.38
2019-03-22T09:05:35.237Z,31.05
2019-03-22T09:08:07.899Z,26.52
2019-03-22T09:10:40.544Z,27.65
2019-03-22T09:13:13.044Z,27.85
2019-03-22T09:15:45.644Z,28.42
2019-03-22T09:18:18.053Z,28.83
2019-03-22T09:20:50.598Z,45.08
2019-03-22T09:23:23.348Z,28.15
2019-03-22T09:25:56.001Z,29.50
2019-03-22T09:28:28.385Z,28.50
2019-03-22T09:31:10.079Z,27.85
2019-03-22T09:33:34.959Z,26.42
2019-03-22T09:36:07.843Z,27.25
2019-03-22T09:38:40.616Z,28.90
2019-03-22T09:41:13.063Z,29.10
2019-03-22T09:43:46.467Z,26.27
2019-03-22T09:46:19.605Z,27.93
2019-03-22T09:48:52.374Z,33.92
2019-03-22T09:51:24.874Z,27.07
2019-03-22T09:53:57.447Z,26.17
2019-03-22T09:56:29.839Z,28.60
2019-03-22T09:59:02.165Z,32.08
2019-03-22T10:01:34.655Z,42.75
2019-03-22T10:04:07.283Z,30.48
2019-03-22T10:06:39.715Z,30.43
2019-03-22T10:09:13.413Z,28.35
2019-03-22T10:11:46.175Z,27.32
2019-03-22T10:14:21.278Z,28.10
2019-03-22T10:16:53.236Z,28.12
2019-03-22T10:19:25.555Z,31.50
2019-03-22T10:21:58.146Z,27.48
2019-03-22T10:24:30.528Z,33.05
2019-03-22T10:27:05.076Z,30.32
2019-03-22T10:29:36.531Z,29.27
2019-03-22T10:32:09.030Z,31.75
2019-03-22T10:34:41.425Z,27.67
2019-03-22T10:37:14.156Z,31.45
2019-03-22T10:39:46.911Z,29.95
2019-03-22T10:42:19.354Z,31.27
2019-03-22T10:44:52.229Z,30.32
2019-03-22T10:47:24.817Z,25.43
2019-03-22T10:49:57.219Z,27.62
2019-03-22T10:52:30.004Z,37.05
2019-03-22T10:55:17.506Z,28.90
2019-03-22T10:57:39.985Z,32.88
2019-03-22T11:00:14.225Z,29.25
2019-03-22T11:02:47.528Z,28.20
2019-03-22T11:05:20.235Z,27.80
2019-03-22T11:07:54.884Z,32.58
2019-03-22T11:10:28.638Z,33.20
2019-03-22T11:13:01.130Z,31.70
2019-03-22T11:15:33.885Z,33.30
2019-03-22T11:18:07.279Z,31.37
2019-03-22T11:20:39.598Z,39.42
2019-03-22T11:23:12.375Z,38.33
2019-03-22T11:25:44.932Z,39.30
2019-03-22T11:28:17.541Z,38.10
2019-03-22T11:30:50.048Z,38.53
2019-03-22T11:33:23.438Z,37.85
2019-03-22T11:35:55.877Z,37.03
2019-03-22T11:38:28.659Z,39.00
2019-03-22T11:41:01.446Z,44.30
2019-03-22T11:43:34.892Z,38.80
2019-03-22T11:46:07.544Z,34.70
2019-03-22T11:48:39.888Z,39.00
2019-03-22T11:51:12.692Z,41.63
2019-03-22T11:53:45.256Z,43.10
2019-03-22T11:56:17.862Z,42.10
2019-03-22T11:58:50.253Z,52.17
2019-03-22T12:01:23.176Z,46.77
2019-03-22T12:03:55.603Z,44.63
2019-03-22T12:06:28.248Z,45.73
2019-03-22T12:09:00.600Z,45.15
2019-03-22T12:11:33.612Z,47.45
2019-03-22T12:14:05.839Z,59.53
2019-03-22T12:16:38.696Z,74.47
2019-03-22T12:19:11.088Z,175.75
2019-03-22T12:21:43.813Z,244.40
2019-03-22T12:24:16.165Z,189.87
2019-03-22T12:26:48.793Z,193.22
2019-03-22T12:29:21.233Z,166.57
2019-03-22T12:31:54.193Z,146.22
2019-03-22T12:34:26.611Z,121.85
2019-03-22T12:36:59.220Z,102.45
2019-03-22T12:39:31.659Z,76.00
2019-03-22T12:42:04.652Z,72.62
2019-03-22T12:44:37.038Z,67.22
2019-03-22T12:47:10.011Z,63.40
2019-03-22T12:49:42.556Z,59.73
2019-03-22T12:52:15.270Z,58.58
2019-03-22T12:54:47.772Z,58.48
2019-03-22T12:57:20.851Z,49.48
2019-03-22T12:59:53.230Z,54.95
2019-03-22T13:02:25.854Z,47.27
2019-03-22T13:04:58.384Z,45.95
2019-03-22T13:07:31.094Z,57.20
2019-03-22T13:10:03.789Z,54.73
2019-03-22T13:12:36.845Z,54.08
2019-03-22T13:15:10.609Z,53.08
2019-03-22T13:17:43.491Z,48.75
2019-03-22T13:20:17.003Z,55.90
2019-03-22T13:22:49.987Z,45.65
2019-03-22T13:25:22.587Z,52.58
2019-03-22T13:27:55.235Z,54.40
2019-03-22T13:30:29.737Z,55.88
2019-03-22T13:33:02.644Z,51.98
2019-03-22T13:35:35.517Z,52.70
2019-03-22T13:38:08.599Z,46.53
2019-03-22T13:40:41.380Z,48.73
2019-03-22T13:43:15.000Z,49.45
2019-03-22T13:45:48.194Z,53.60
2019-03-22T13:48:21.042Z,52.65
2019-03-22T13:50:53.865Z,54.77
2019-03-22T13:53:27.071Z,61.00
2019-03-22T13:56:00.153Z,52.40
2019-03-22T13:58:32.976Z,58.65
2019-03-22T14:01:05.429Z,60.00
2019-03-22T14:03:38.211Z,50.20
2019-03-22T14:06:10.521Z,58.13
2019-03-22T14:08:42.970Z,53.55
2019-03-22T14:11:15.414Z,50.23
2019-03-22T14:13:48.134Z,50.48
2019-03-22T14:16:21.044Z,54.33
2019-03-22T14:18:53.563Z,56.75
2019-03-22T14:21:26.042Z,61.40
2019-03-22T14:23:58.711Z,54.30
2019-03-22T14:26:31.204Z,56.68
2019-03-22T14:29:03.978Z,54.73
2019-03-22T14:31:36.328Z,55.60
2019-03-22T14:34:09.043Z,57.60
2019-03-22T14:36:41.636Z,58.85
2019-03-22T14:39:14.282Z,56.13
2019-03-22T14:41:46.675Z,53.50
2019-03-22T14:44:25.194Z,56.00
2019-03-22T14:46:54.407Z,51.53
2019-03-22T14:49:27.099Z,54.00
2019-03-22T14:52:01.114Z,57.08
2019-03-22T14:54:33.497Z,51.60
2019-03-22T14:57:06.879Z,55.88
2019-03-22T14:59:40.474Z,50.17
2019-03-22T15:02:14.011Z,58.87
2019-03-22T15:04:46.657Z,53.55
2019-03-22T15:07:20.032Z,53.25
2019-03-22T15:09:52.732Z,50.98
2019-03-22T15:12:26.105Z,51.08
2019-03-22T15:15:01.343Z,48.95
2019-03-22T15:17:35.688Z,48.13
2019-03-22T15:20:10.256Z,48.95
2019-03-22T15:22:44.207Z,56.60
2019-03-22T15:25:18.273Z,52.27
2019-03-22T15:27:52.008Z,53.33
2019-03-22T15:30:25.680Z,56.73
2019-03-22T15:32:59.689Z,56.50
2019-03-22T15:35:33.715Z,56.60
2019-03-22T15:38:07.718Z,58.73
2019-03-22T15:40:41.766Z,57.58
2019-03-22T15:43:14.234Z,57.67
2019-03-22T15:45:47.083Z,65.32
2019-03-22T15:48:19.685Z,59.20
2019-03-22T15:50:52.499Z,59.93
2019-03-22T15:53:25.261Z,60.00
2019-03-22T15:55:57.815Z,64.37
2019-03-22T15:58:30.618Z,59.18
2019-03-22T16:01:03.040Z,62.33
2019-03-22T16:03:43.997Z,60.60
2019-03-22T16:06:09.463Z,61.90
2019-03-22T16:08:42.372Z,59.90
2019-03-22T16:11:15.226Z,62.73
2019-03-22T16:13:47.884Z,61.92
2019-03-22T16:16:20.287Z,66.62
2019-03-22T16:18:52.974Z,62.80
2019-03-22T16:21:25.449Z,63.00
2019-03-22T16:23:58.015Z,67.00
2019-03-22T16:26:30.342Z,69.82
2019-03-22T16:29:02.763Z,60.35
2019-03-22T16:31:35.363Z,67.85
2019-03-22T16:34:07.891Z,67.47
2019-03-22T16:36:40.529Z,66.05
2019-03-22T16:39:13.284Z,66.02
2019-03-22T16:41:45.801Z,64.15
2019-03-22T16:44:18.513Z,76.33
2019-03-22T16:46:50.987Z,64.12
2019-03-22T16:49:23.678Z,59.67
2019-03-22T16:51:56.478Z,68.05
2019-03-22T16:54:28.927Z,63.55
2019-03-22T16:57:01.500Z,64.00
2019-03-22T16:59:33.875Z,64.35
2019-03-22T17:02:06.650Z,67.25
2019-03-22T17:04:39.405Z,64.32
2019-03-22T17:07:11.802Z,62.60
2019-03-22T17:09:44.243Z,63.05
2019-03-22T17:12:16.768Z,64.60
2019-03-22T17:14:49.380Z,61.48
2019-03-22T17:17:21.952Z,61.70
2019-03-22T17:19:54.676Z,64.70
2019-03-22T17:22:27.471Z,63.78
2019-03-22T17:25:00.284Z,66.85
2019-03-22T17:27:32.713Z,67.55
2019-03-22T17:30:06.622Z,68.15
2019-03-22T17:32:39.365Z,67.40
2019-03-22T17:35:12.622Z,61.00
2019-03-22T17:37:45.443Z,67.35
2019-03-22T17:40:18.256Z,69.00
2019-03-22T17:42:50.867Z,65.57
2019-03-22T17:45:24.268Z,68.95
2019-03-22T17:47:56.858Z,67.20
2019-03-22T17:50:29.427Z,68.60
2019-03-22T17:53:01.988Z,67.65
2019-03-22T17:55:34.459Z,75.17
2019-03-22T17:58:07.287Z,68.00
2019-03-22T18:00:39.902Z,75.30
2019-03-22T18:03:12.453Z,71.20
2019-03-22T18:05:44.869Z,68.10
2019-03-22T18:08:17.179Z,70.28
2019-03-22T18:10:49.580Z,66.62
2019-03-22T18:13:22.379Z,69.53
2019-03-22T18:15:54.861Z,70.83
2019-03-22T18:18:27.713Z,68.80
2019-03-22T18:21:00.029Z,67.25
2019-03-22T18:23:35.975Z,67.35
2019-03-22T18:26:06.843Z,66.60
2019-03-22T18:28:39.462Z,64.20
2019-03-22T18:31:11.870Z,69.07
2019-03-22T18:33:44.892Z,67.00
2019-03-22T18:36:17.709Z,70.25
2019-03-22T18:38:50.839Z,69.00
2019-03-22T18:41:23.865Z,73.15
2019-03-22T18:43:56.768Z,68.72
2019-03-22T18:46:29.425Z,68.60
2019-03-22T18:49:01.957Z,66.33
2019-03-22T18:51:34.302Z,67.50
2019-03-22T18:54:07.335Z,65.45
2019-03-22T18:56:39.766Z,65.87
2019-03-22T18:59:12.410Z,65.08
2019-03-22T19:01:44.855Z,64.62
2019-03-22T19:04:17.980Z,65.78
2019-03-22T19:06:50.464Z,67.25
2019-03-22T19:09:22.956Z,63.85
2019-03-22T19:11:55.294Z,66.53
2019-03-22T19:14:28.092Z,68.12
2019-03-22T19:17:00.565Z,65.32
2019-03-22T19:19:33.175Z,70.47
2019-03-22T19:22:05.535Z,73.02
2019-03-22T19:24:38.303Z,67.90
2019-03-22T19:27:10.744Z,66.65
2019-03-22T19:29:43.365Z,69.53
2019-03-22T19:32:15.703Z,69.95
2019-03-22T19:34:54.388Z,79.27
2019-03-22T19:37:22.142Z,71.92
2019-03-22T19:39:54.974Z,67.00
2019-03-22T19:42:27.437Z,70.60
2019-03-22T19:44:59.724Z,68.37
2019-03-22T19:47:32.404Z,74.32
2019-03-22T19:50:06.004Z,72.17
2019-03-22T19:52:38.666Z,68.65
2019-03-22T19:55:11.872Z,69.37
2019-03-22T19:57:44.240Z,78.70
2019-03-22T20:00:18.884Z,71.02
2019-03-22T20:02:51.563Z,68.72
2019-03-22T20:05:26.273Z,72.72
2019-03-22T20:07:59.436Z,77.65
2019-03-22T20:10:32.183Z,73.52
2019-03-22T20:13:04.749Z,76.10
2019-03-22T20:15:37.062Z,74.72
2019-03-22T20:18:09.808Z,74.75
2019-03-22T20:20:42.327Z,72.78
2019-03-22T20:23:14.921Z,75.42
2019-03-22T20:25:47.430Z,77.70
2019-03-22T20:28:19.823Z,73.90
2019-03-22T20:30:52.471Z,71.25
2019-03-22T20:33:25.177Z,75.25
2019-03-22T20:35:57.768Z,72.00
2019-03-22T20:38:30.208Z,71.60
2019-03-22T20:41:02.887Z,71.05
2019-03-22T20:43:35.522Z,72.67
2019-03-22T20:46:08.847Z,74.50
2019-03-22T20:48:41.666Z,73.28
2019-03-22T20:51:15.070Z,69.87
2019-03-22T20:53:49.089Z,74.82
2019-03-22T20:56:21.509Z,74.77
2019-03-22T20:58:53.981Z,72.30
2019-03-22T21:01:26.366Z,71.82
2019-03-22T21:03:58.731Z,75.20
2019-03-22T21:06:31.181Z,67.70
2019-03-22T21:09:03.617Z,72.15
2019-03-22T21:11:36.638Z,76.55
2019-03-22T21:14:08.825Z,72.20
2019-03-22T21:16:41.340Z,74.15
2019-03-22T21:19:13.865Z,71.62
2019-03-22T21:21:47.743Z,72.22
2019-03-22T21:24:20.164Z,65.40
2019-03-22T21:26:52.741Z,75.25
2019-03-22T21:29:25.265Z,74.60
2019-03-22T21:31:58.118Z,76.25
2019-03-22T21:34:30.779Z,73.80
2019-03-22T21:37:03.343Z,77.70
2019-03-22T21:39:36.044Z,76.22
2019-03-22T21:42:08.335Z,69.82
2019-03-22T21:44:40.847Z,73.80
2019-03-22T21:47:13.392Z,72.50
2019-03-22T21:49:45.934Z,74.50
2019-03-22T21:52:18.545Z,77.50
2019-03-22T21:54:51.244Z,76.05
2019-03-22T21:57:23.888Z,68.92
2019-03-22T21:59:56.553Z,71.75
2019-03-22T22:02:29.206Z,71.35
2019-03-22T22:05:01.718Z,70.37
2019-03-22T22:07:35.078Z,72.62
2019-03-22T22:10:09.973Z,69.70
2019-03-22T22:12:42.474Z,68.00
2019-03-22T22:15:14.964Z,72.50
2019-03-22T22:17:47.688Z,68.10
2019-03-22T22:20:28.420Z,71.33
2019-03-22T22:22:53.970Z,72.22
2019-03-22T22:25:26.590Z,68.97
2019-03-22T22:27:59.203Z,70.87
2019-03-22T22:30:31.708Z,71.07
2019-03-22T22:33:04.158Z,71.80
2019-03-22T22:35:36.614Z,67.97
2019-03-22T22:38:09.306Z,76.12
2019-03-22T22:40:42.069Z,75.57
2019-03-22T22:43:14.922Z,70.08
2019-03-22T22:45:47.632Z,70.28
2019-03-22T22:48:20.136Z,71.75
2019-03-22T22:50:52.777Z,77.37
2019-03-22T22:53:25.173Z,74.42
2019-03-22T22:55:57.761Z,84.03
2019-03-22T22:58:30.256Z,71.37
2019-03-22T23:01:02.828Z,77.47
2019-03-22T23:03:35.638Z,76.92
2019-03-22T23:06:09.631Z,79.35
2019-03-22T23:08:42.358Z,83.17
2019-03-22T23:11:15.050Z,77.97
2019-03-22T23:13:47.451Z,82.27
2019-03-22T23:16:19.994Z,83.45
2019-03-22T23:18:52.378Z,82.70
2019-03-22T23:21:25.250Z,81.15
2019-03-22T23:23:57.649Z,87.22
2019-03-22T23:26:30.562Z,81.97
2019-03-22T23:29:02.785Z,89.83
2019-03-22T23:31:36.292Z,91.32
2019-03-22T23:34:08.909Z,97.92
2019-03-22T23:36:41.467Z,95.25
2019-03-22T23:39:13.939Z,85.22
2019-03-22T23:41:46.297Z,85.92
2019-03-22T23:44:19.062Z,84.10
2019-03-22T23:46:51.793Z,85.22
2019-03-22T23:49:24.466Z,79.67
2019-03-22T23:51:57.007Z,87.10
2019-03-22T23:54:29.701Z,80.05
2019-03-22T23:57:03.119Z,83.05
2019-03-22T23:59:35.477Z,82.45
